createdAt,value
2022-12-15T00:00:17.501Z,-5.13
2022-12-15T00:01:58.437Z,-5.12
2022-12-15T00:03:26.695Z,-5.09
2022-12-15T00:04:47.361Z,-5.08
2022-12-15T00:06:08.116Z,-5.06
2022-12-15T00:07:28.601Z,-5.04
2022-12-15T00:08:48.974Z,-5.03
2022-12-15T00:10:09.725Z,-5.02
2022-12-15T00:11:30.570Z,-5.04
2022-12-15T00:12:51.187Z,-5.06
2022-12-15T00:14:12.550Z,-5.07
2022-12-15T00:15:33.247Z,-5.07
2022-12-15T00:16:54.302Z,-5.05
2022-12-15T00:18:14.670Z,-5.04
2022-12-15T00:19:35.407Z,-5.04
2022-12-15T00:20:56.053Z,-5.02
2022-12-15T00:22:16.726Z,-5.01
2022-12-15T00:23:37.566Z,-5.02
2022-12-15T00:24:58.230Z,-5.02
2022-12-15T00:26:19.863Z,-5.02
2022-12-15T00:27:40.661Z,-5.01
2022-12-15T00:29:01.375Z,-4.99
2022-12-15T00:30:23.714Z,-4.95
2022-12-15T00:31:45.070Z,-4.94
2022-12-15T00:33:05.225Z,-4.95
2022-12-15T00:34:26.596Z,-4.91
2022-12-15T00:35:51.517Z,-4.91
2022-12-15T00:37:12.110Z,-4.93
2022-12-15T00:38:33.737Z,-4.95
2022-12-15T00:39:35.893Z,-4.95
2022-12-15T00:40:37.854Z,-4.95
2022-12-15T00:41:39.825Z,-4.96
2022-12-15T00:43:02.137Z,-4.96
2022-12-15T00:44:05.885Z,-4.96
2022-12-15T00:45:08.875Z,-4.95
2022-12-15T00:46:30.599Z,-4.95
2022-12-15T00:47:36.632Z,-4.94
2022-12-15T00:48:41.144Z,-4.92
2022-12-15T00:50:33.028Z,-4.92
2022-12-15T00:51:53.685Z,-4.91
2022-12-15T00:53:16.610Z,-4.89
2022-12-15T00:54:37.185Z,-4.88
2022-12-15T00:55:57.598Z,-4.88
2022-12-15T00:57:18.213Z,-4.89
2022-12-15T00:58:39.039Z,-4.88
2022-12-15T00:59:59.902Z,-4.90
2022-12-15T01:01:28.573Z,-4.92
2022-12-15T01:02:49.669Z,-4.93
2022-12-15T01:04:13.381Z,-4.94
2022-12-15T01:05:38.010Z,-4.97
2022-12-15T01:06:58.984Z,-4.97
2022-12-15T01:08:19.944Z,-4.95
2022-12-15T01:09:42.764Z,-4.93
2022-12-15T01:11:03.764Z,-4.94
2022-12-15T01:12:24.275Z,-4.90
2022-12-15T01:13:49.716Z,-4.91
2022-12-15T01:15:11.514Z,-4.92
2022-12-15T01:16:33.008Z,-4.92
2022-12-15T01:17:53.907Z,-4.89
2022-12-15T01:19:15.312Z,-4.86
2022-12-15T01:20:20.405Z,-4.85
2022-12-15T01:21:24.986Z,-4.86
2022-12-15T01:22:27.502Z,-4.89
2022-12-15T01:23:31.399Z,-4.90
2022-12-15T01:24:34.318Z,-4.90
2022-12-15T01:25:38.664Z,-4.88
2022-12-15T01:26:40.795Z,-4.87
2022-12-15T01:27:42.828Z,-4.88
2022-12-15T01:28:44.853Z,-4.87
2022-12-15T01:29:46.825Z,-4.86
2022-12-15T01:30:49.507Z,-4.85
2022-12-15T01:31:51.899Z,-4.84
2022-12-15T01:32:58.731Z,-4.84
2022-12-15T01:34:03.697Z,-4.86
2022-12-15T01:35:08.662Z,-4.86
2022-12-15T01:36:11.898Z,-4.84
2022-12-15T01:37:17.197Z,-4.85
2022-12-15T01:38:19.129Z,-4.87
2022-12-15T01:39:23.185Z,-4.89
2022-12-15T01:40:46.291Z,-4.90
2022-12-15T01:41:49.352Z,-4.92
2022-12-15T01:42:53.601Z,-4.93
2022-12-15T01:43:55.540Z,-4.93
2022-12-15T01:45:31.274Z,-4.93
2022-12-15T01:46:33.733Z,-4.94
2022-12-15T01:47:35.979Z,-4.94
2022-12-15T01:48:43.241Z,-4.95
2022-12-15T01:49:47.717Z,-4.94
2022-12-15T01:51:26.936Z,-4.94
2022-12-15T01:52:30.780Z,-4.95
2022-12-15T01:53:38.788Z,-4.96
2022-12-15T01:55:12.692Z,-4.95
2022-12-15T01:56:16.345Z,-4.93
2022-12-15T01:57:25.840Z,-4.91
2022-12-15T01:58:28.519Z,-4.89
2022-12-15T01:59:38.266Z,-4.89
2022-12-15T02:00:42.149Z,-4.91
2022-12-15T02:01:44.374Z,-4.90
2022-12-15T02:02:57.516Z,-4.90
2022-12-15T02:03:59.764Z,-4.91
2022-12-15T02:05:04.213Z,-4.90
2022-12-15T02:06:08.176Z,-4.90
2022-12-15T02:07:14.257Z,-4.90
2022-12-15T02:08:19.674Z,-4.91
2022-12-15T02:09:29.242Z,-4.93
2022-12-15T02:11:05.355Z,-4.94
2022-12-15T02:12:48.576Z,-4.96
2022-12-15T02:14:00.714Z,-4.99
2022-12-15T02:15:06.323Z,-4.98
2022-12-15T02:16:38.934Z,-4.98
2022-12-15T02:18:17.910Z,-4.97
2022-12-15T02:19:26.177Z,-4.97
2022-12-15T02:20:55.814Z,-4.96
2022-12-15T02:22:32.568Z,-4.95
2022-12-15T02:24:12.774Z,-4.96
2022-12-15T02:25:56.512Z,-4.97
2022-12-15T02:27:29.846Z,-4.97
2022-12-15T02:28:53.057Z,-5.00
2022-12-15T02:30:31.662Z,-5.00
2022-12-15T02:31:53.262Z,-5.02
2022-12-15T02:33:15.330Z,-5.00
2022-12-15T02:34:31.960Z,-5.00
2022-12-15T02:35:56.352Z,-4.99
2022-12-15T02:37:09.049Z,-4.95
2022-12-15T02:38:10.878Z,-4.92
2022-12-15T02:39:14.515Z,-4.91
2022-12-15T02:40:17.599Z,-4.90
2022-12-15T02:41:35.826Z,-4.90
2022-12-15T02:42:45.863Z,-4.89
2022-12-15T02:44:00.898Z,-4.90
2022-12-15T02:45:11.232Z,-4.90
2022-12-15T02:46:27.301Z,-4.90
2022-12-15T02:47:53.228Z,-4.92
2022-12-15T02:49:15.545Z,-4.93
2022-12-15T02:50:29.478Z,-4.93
2022-12-15T02:51:33.984Z,-4.92
2022-12-15T02:52:44.701Z,-4.92
2022-12-15T02:53:52.388Z,-4.92
2022-12-15T02:55:18.959Z,-4.89
2022-12-15T02:56:41.416Z,-4.87
2022-12-15T02:57:58.020Z,-4.84
2022-12-15T02:59:38.410Z,-4.82
2022-12-15T03:00:49.423Z,-4.78
2022-12-15T03:02:05.856Z,-4.74
2022-12-15T03:03:09.269Z,-4.72
2022-12-15T03:04:13.231Z,-4.71
2022-12-15T03:05:17.743Z,-4.70
2022-12-15T03:06:20.353Z,-4.68
2022-12-15T03:07:25.260Z,-4.67
2022-12-15T03:08:29.248Z,-4.66
2022-12-15T03:09:32.192Z,-4.65
2022-12-15T03:10:34.405Z,-4.63
2022-12-15T03:11:37.479Z,-4.63
2022-12-15T03:12:39.404Z,-4.63
2022-12-15T03:13:41.286Z,-4.63
2022-12-15T03:14:43.247Z,-4.62
2022-12-15T03:15:46.026Z,-4.64
2022-12-15T03:16:48.407Z,-4.64
2022-12-15T03:17:50.467Z,-4.68
2022-12-15T03:18:52.939Z,-4.71
2022-12-15T03:19:54.850Z,-4.76
2022-12-15T03:20:56.669Z,-4.78
2022-12-15T03:21:58.415Z,-4.80
2022-12-15T03:23:01.873Z,-4.80
2022-12-15T03:24:04.342Z,-4.81
2022-12-15T03:25:06.364Z,-4.85
2022-12-15T03:26:08.171Z,-4.88
2022-12-15T03:27:10.415Z,-4.92
2022-12-15T03:28:13.034Z,-4.92
2022-12-15T03:29:15.145Z,-4.92
2022-12-15T03:30:16.971Z,-4.91
2022-12-15T03:31:19.548Z,-4.92
2022-12-15T03:32:21.590Z,-4.92
2022-12-15T03:33:23.502Z,-4.91
2022-12-15T03:34:26.068Z,-4.89
2022-12-15T03:35:28.290Z,-4.86
2022-12-15T03:36:30.337Z,-4.84
2022-12-15T03:37:32.486Z,-4.83
2022-12-15T03:38:34.490Z,-4.83
2022-12-15T03:39:36.716Z,-4.83
2022-12-15T03:40:38.937Z,-4.83
2022-12-15T03:41:41.630Z,-4.84
2022-12-15T03:42:49.616Z,-4.84
2022-12-15T03:43:51.479Z,-4.82
2022-12-15T03:44:53.213Z,-4.81
2022-12-15T03:45:55.058Z,-4.80
2022-12-15T03:47:02.804Z,-4.81
2022-12-15T03:48:05.453Z,-4.82
2022-12-15T03:49:07.638Z,-4.83
2022-12-15T03:50:10.552Z,-4.84
2022-12-15T03:51:12.794Z,-4.86
2022-12-15T03:52:14.912Z,-4.87
2022-12-15T03:53:16.890Z,-4.87
2022-12-15T03:54:19.086Z,-4.88
2022-12-15T03:55:22.387Z,-4.88
2022-12-15T03:56:24.761Z,-4.88
2022-12-15T03:57:26.600Z,-4.87
2022-12-15T03:58:28.417Z,-4.87
2022-12-15T03:59:30.381Z,-4.88
2022-12-15T04:00:33.505Z,-4.87
2022-12-15T04:01:37.997Z,-4.88
2022-12-15T04:02:40.068Z,-4.88
2022-12-15T04:03:42.409Z,-4.89
2022-12-15T04:04:44.634Z,-4.90
2022-12-15T04:05:46.631Z,-4.89
2022-12-15T04:06:48.672Z,-4.89
2022-12-15T04:07:50.682Z,-4.91
2022-12-15T04:08:52.600Z,-4.94
2022-12-15T04:09:54.732Z,-4.96
2022-12-15T04:10:56.677Z,-4.99
2022-12-15T04:11:58.687Z,-5.00
2022-12-15T04:13:03.356Z,-5.02
2022-12-15T04:14:05.279Z,-5.05
2022-12-15T04:15:08.999Z,-5.06
2022-12-15T04:16:14.786Z,-5.05
2022-12-15T04:17:19.816Z,-5.04
2022-12-15T04:18:22.078Z,-5.04
2022-12-15T04:19:42.317Z,-5.04
2022-12-15T04:20:44.508Z,-5.05
2022-12-15T04:21:46.271Z,-5.04
2022-12-15T04:22:50.408Z,-5.05
2022-12-15T04:24:10.766Z,-5.04
2022-12-15T04:25:35.073Z,-5.06
2022-12-15T04:26:55.358Z,-5.07
2022-12-15T04:28:16.164Z,-5.10
2022-12-15T04:29:37.084Z,-5.13
2022-12-15T04:31:04.448Z,-5.13
2022-12-15T04:32:25.097Z,-5.13
2022-12-15T04:33:45.699Z,-5.12
2022-12-15T04:35:06.643Z,-5.13
2022-12-15T04:36:30.758Z,-5.13
2022-12-15T04:37:51.319Z,-5.12
2022-12-15T04:39:12.182Z,-5.13
2022-12-15T04:40:33.216Z,-5.14
2022-12-15T04:41:54.359Z,-5.16
2022-12-15T04:43:14.896Z,-5.18
2022-12-15T04:44:36.842Z,-5.19
2022-12-15T04:45:57.647Z,-5.20
2022-12-15T04:47:18.493Z,-5.19
2022-12-15T04:48:39.149Z,-5.20
2022-12-15T04:49:59.633Z,-5.21
2022-12-15T04:51:20.408Z,-5.22
2022-12-15T04:52:40.680Z,-5.23
2022-12-15T04:54:03.285Z,-5.22
2022-12-15T04:55:24.505Z,-5.22
2022-12-15T04:56:45.064Z,-5.22
2022-12-15T04:58:05.467Z,-5.22
2022-12-15T04:59:25.717Z,-5.23
2022-12-15T05:00:46.078Z,-5.22
2022-12-15T05:02:07.219Z,-5.22
2022-12-15T05:03:27.994Z,-5.24
2022-12-15T05:04:48.948Z,-5.26
2022-12-15T05:06:09.350Z,-5.27
2022-12-15T05:07:29.900Z,-5.28
2022-12-15T05:08:50.387Z,-5.30
2022-12-15T05:10:14.903Z,-5.32
2022-12-15T05:11:36.619Z,-5.32
2022-12-15T05:12:57.418Z,-5.32
2022-12-15T05:14:18.113Z,-5.33
2022-12-15T05:15:38.777Z,-5.34
2022-12-15T05:16:59.221Z,-5.34
2022-12-15T05:18:19.485Z,-5.33
2022-12-15T05:19:40.015Z,-5.34
2022-12-15T05:21:00.637Z,-5.36
2022-12-15T05:22:20.743Z,-5.38
2022-12-15T05:23:41.368Z,-5.37
2022-12-15T05:25:02.539Z,-5.35
2022-12-15T05:26:23.278Z,-5.34
2022-12-15T05:27:43.754Z,-5.35
2022-12-15T05:29:04.103Z,-5.39
2022-12-15T05:30:25.141Z,-5.41
2022-12-15T05:31:45.540Z,-5.44
2022-12-15T05:32:47.452Z,-5.45
2022-12-15T05:33:53.201Z,-5.45
2022-12-15T05:34:55.156Z,-5.46
2022-12-15T05:35:58.254Z,-5.43
2022-12-15T05:37:03.295Z,-5.42
2022-12-15T05:38:06.291Z,-5.41
2022-12-15T05:39:08.199Z,-5.40
2022-12-15T05:40:10.753Z,-5.39
2022-12-15T05:41:12.586Z,-5.38
2022-12-15T05:42:14.576Z,-5.37
2022-12-15T05:43:21.619Z,-5.36
2022-12-15T05:44:26.800Z,-5.37
2022-12-15T05:45:28.999Z,-5.38
2022-12-15T05:46:30.942Z,-5.39
2022-12-15T05:47:33.010Z,-5.40
2022-12-15T05:48:34.960Z,-5.40
2022-12-15T05:49:36.796Z,-5.41
2022-12-15T05:50:38.592Z,-5.42
2022-12-15T05:51:44.643Z,-5.45
2022-12-15T05:52:49.463Z,-5.47
2022-12-15T05:53:51.649Z,-5.47
2022-12-15T05:54:53.775Z,-5.47
2022-12-15T05:56:02.216Z,-5.48
2022-12-15T05:57:04.154Z,-5.50
2022-12-15T05:58:05.995Z,-5.51
2022-12-15T05:59:08.332Z,-5.51
2022-12-15T06:00:10.634Z,-5.51
2022-12-15T06:01:18.493Z,-5.49
2022-12-15T06:02:20.417Z,-5.49
2022-12-15T06:03:22.267Z,-5.49
2022-12-15T06:04:24.568Z,-5.49
2022-12-15T06:05:26.536Z,-5.48
2022-12-15T06:06:28.602Z,-5.46
2022-12-15T06:07:30.565Z,-5.44
2022-12-15T06:08:35.730Z,-5.43
2022-12-15T06:09:37.539Z,-5.43
2022-12-15T06:10:39.463Z,-5.43
2022-12-15T06:11:41.556Z,-5.44
2022-12-15T06:12:43.353Z,-5.44
2022-12-15T06:13:45.510Z,-5.44
2022-12-15T06:14:47.502Z,-5.46
2022-12-15T06:16:03.988Z,-5.47
2022-12-15T06:17:05.967Z,-5.47
2022-12-15T06:18:07.806Z,-5.48
2022-12-15T06:19:09.662Z,-5.47
2022-12-15T06:20:11.840Z,-5.46
2022-12-15T06:21:19.912Z,-5.45
2022-12-15T06:22:21.679Z,-5.45
2022-12-15T06:23:23.456Z,-5.45
2022-12-15T06:24:26.148Z,-5.45
2022-12-15T06:25:27.955Z,-5.46
2022-12-15T06:26:33.740Z,-5.46
2022-12-15T06:27:37.768Z,-5.46
2022-12-15T06:28:40.578Z,-5.45
2022-12-15T06:29:42.531Z,-5.46
2022-12-15T06:30:44.544Z,-5.46
2022-12-15T06:31:46.882Z,-5.48
2022-12-15T06:32:49.886Z,-5.51
2022-12-15T06:33:59.241Z,-5.52
2022-12-15T06:35:03.679Z,-5.54
2022-12-15T06:36:09.447Z,-5.54
2022-12-15T06:37:11.298Z,-5.55
2022-12-15T06:38:13.521Z,-5.54
2022-12-15T06:39:16.387Z,-5.54
2022-12-15T06:40:18.273Z,-5.53
2022-12-15T06:41:22.262Z,-5.52
2022-12-15T06:42:24.125Z,-5.51
2022-12-15T06:43:27.845Z,-5.49
2022-12-15T06:44:29.864Z,-5.48
2022-12-15T06:45:31.710Z,-5.47
2022-12-15T06:46:35.243Z,-5.46
2022-12-15T06:47:37.177Z,-5.45
2022-12-15T06:48:39.808Z,-5.46
2022-12-15T06:49:41.937Z,-5.48
2022-12-15T06:50:45.547Z,-5.48
2022-12-15T06:51:49.475Z,-5.49
2022-12-15T06:52:51.469Z,-5.52
2022-12-15T06:53:56.554Z,-5.54
2022-12-15T06:54:58.580Z,-5.55
2022-12-15T06:56:02.780Z,-5.56
2022-12-15T06:57:04.727Z,-5.59
2022-12-15T06:58:06.596Z,-5.56
2022-12-15T06:59:08.543Z,-5.55
2022-12-15T07:00:10.995Z,-5.56
2022-12-15T07:01:13.008Z,-5.55
2022-12-15T07:02:21.082Z,-5.54
2022-12-15T07:03:26.090Z,-5.52
2022-12-15T07:04:28.300Z,-5.50
2022-12-15T07:05:30.287Z,-5.48
2022-12-15T07:06:37.489Z,-5.47
2022-12-15T07:07:39.576Z,-5.47
2022-12-15T07:08:42.107Z,-5.49
2022-12-15T07:09:43.964Z,-5.49
2022-12-15T07:10:45.767Z,-5.49
2022-12-15T07:11:50.533Z,-5.48
2022-12-15T07:12:52.489Z,-5.48
2022-12-15T07:13:54.918Z,-5.48
2022-12-15T07:14:56.885Z,-5.46
2022-12-15T07:15:59.990Z,-5.45
2022-12-15T07:17:02.023Z,-5.44
2022-12-15T07:18:04.260Z,-5.42
2022-12-15T07:19:06.180Z,-5.41
2022-12-15T07:20:09.041Z,-5.40
2022-12-15T07:21:11.116Z,-5.40
2022-12-15T07:22:13.045Z,-5.40
2022-12-15T07:23:14.868Z,-5.39
2022-12-15T07:24:16.692Z,-5.38
2022-12-15T07:25:19.319Z,-5.36
2022-12-15T07:26:21.279Z,-5.36
2022-12-15T07:27:23.360Z,-5.35
2022-12-15T07:28:26.021Z,-5.33
2022-12-15T07:29:27.968Z,-5.32
2022-12-15T07:30:35.113Z,-5.31
2022-12-15T07:31:40.654Z,-5.29
2022-12-15T07:32:44.428Z,-5.29
2022-12-15T07:33:53.992Z,-5.29
2022-12-15T07:34:55.774Z,-5.28
2022-12-15T07:35:57.886Z,-5.28
2022-12-15T07:36:59.758Z,-5.28
2022-12-15T07:38:01.590Z,-5.28
2022-12-15T07:39:05.226Z,-5.29
2022-12-15T07:40:08.238Z,-5.29
2022-12-15T07:41:10.339Z,-5.27
2022-12-15T07:42:12.250Z,-5.26
2022-12-15T07:43:14.120Z,-5.24
2022-12-15T07:44:16.281Z,-5.22
2022-12-15T07:45:18.160Z,-5.21
2022-12-15T07:46:20.003Z,-5.20
2022-12-15T07:47:22.208Z,-5.19
2022-12-15T07:48:24.479Z,-5.17
2022-12-15T07:49:26.470Z,-5.15
2022-12-15T07:50:29.244Z,-5.14
2022-12-15T07:51:31.321Z,-5.12
2022-12-15T07:52:33.325Z,-5.08
2022-12-15T07:53:37.309Z,-5.08
2022-12-15T07:54:39.224Z,-5.07
2022-12-15T07:56:05.573Z,-5.06
2022-12-15T07:57:03.139Z,-5.05
2022-12-15T07:58:05.322Z,-5.05
2022-12-15T07:59:08.485Z,-5.06
2022-12-15T08:00:10.990Z,-5.06
2022-12-15T08:01:16.508Z,-5.07
2022-12-15T08:02:19.252Z,-5.04
2022-12-15T08:03:22.263Z,-5.04
2022-12-15T08:04:24.206Z,-5.05
2022-12-15T08:05:26.250Z,-5.04
2022-12-15T08:06:28.453Z,-5.03
2022-12-15T08:07:30.348Z,-5.01
2022-12-15T08:08:33.676Z,-4.98
2022-12-15T08:09:37.179Z,-4.96
2022-12-15T08:10:40.559Z,-4.97
2022-12-15T08:11:43.219Z,-4.96
2022-12-15T08:12:45.186Z,-4.96
2022-12-15T08:14:04.326Z,-4.97
2022-12-15T08:15:09.650Z,-4.97
2022-12-15T08:16:12.500Z,-4.98
2022-12-15T08:17:14.788Z,-4.98
2022-12-15T08:18:16.771Z,-4.98
2022-12-15T08:19:19.277Z,-4.98
2022-12-15T08:20:21.261Z,-4.98
2022-12-15T08:21:23.544Z,-4.98
2022-12-15T08:22:25.491Z,-4.97
2022-12-15T08:23:29.236Z,-4.96
2022-12-15T08:24:31.254Z,-4.93
2022-12-15T08:25:33.349Z,-4.91
2022-12-15T08:26:38.064Z,-4.91
2022-12-15T08:27:40.388Z,-4.91
2022-12-15T08:28:44.088Z,-4.91
2022-12-15T08:29:51.104Z,-4.92
2022-12-15T08:30:53.901Z,-4.97
2022-12-15T08:31:56.049Z,-4.95
2022-12-15T08:32:58.122Z,-4.95
2022-12-15T08:34:01.663Z,-4.95
2022-12-15T08:35:03.570Z,-4.95
2022-12-15T08:36:09.108Z,-4.96
2022-12-15T08:37:11.115Z,-4.97
2022-12-15T08:38:13.079Z,-4.97
2022-12-15T08:39:15.278Z,-4.96
2022-12-15T08:40:17.445Z,-4.95
2022-12-15T08:41:28.615Z,-4.94
2022-12-15T08:42:38.495Z,-4.95
2022-12-15T08:43:47.565Z,-4.97
2022-12-15T08:44:50.505Z,-4.97
2022-12-15T08:45:52.602Z,-4.96
2022-12-15T08:46:54.497Z,-4.95
2022-12-15T08:47:56.868Z,-4.94
2022-12-15T08:48:58.711Z,-4.92
2022-12-15T08:50:00.840Z,-4.89
2022-12-15T08:51:03.289Z,-4.89
2022-12-15T08:52:05.146Z,-4.87
2022-12-15T08:53:30.192Z,-4.86
2022-12-15T08:54:28.986Z,-4.84
2022-12-15T08:55:30.968Z,-4.83
2022-12-15T08:56:33.088Z,-4.82
2022-12-15T08:57:35.121Z,-4.82
2022-12-15T08:58:37.211Z,-4.80
2022-12-15T08:59:39.215Z,-4.80
2022-12-15T09:00:41.145Z,-4.79
2022-12-15T09:01:43.778Z,-4.79
2022-12-15T09:02:45.940Z,-4.77
2022-12-15T09:03:50.596Z,-4.76
2022-12-15T09:04:52.644Z,-4.73
2022-12-15T09:05:55.020Z,-4.74
2022-12-15T09:06:57.326Z,-4.74
2022-12-15T09:08:04.642Z,-4.75
2022-12-15T09:09:12.529Z,-4.77
2022-12-15T09:10:14.432Z,-4.78
2022-12-15T09:11:16.755Z,-4.77
2022-12-15T09:12:18.624Z,-4.75
2022-12-15T09:13:20.476Z,-4.72
2022-12-15T09:14:28.816Z,-4.72
2022-12-15T09:16:07.103Z,-4.69
2022-12-15T09:16:53.346Z,-4.66
2022-12-15T09:17:55.500Z,-4.64
2022-12-15T09:19:00.014Z,-4.63
2022-12-15T09:20:01.914Z,-4.62
2022-12-15T09:21:07.454Z,-4.61
2022-12-15T09:22:09.436Z,-4.61
2022-12-15T09:23:11.384Z,-4.61
2022-12-15T09:24:22.133Z,-4.60
2022-12-15T09:25:28.200Z,-4.60
2022-12-15T09:26:32.824Z,-4.57
2022-12-15T09:27:35.424Z,-4.53
2022-12-15T09:28:38.596Z,-4.52
2022-12-15T09:29:40.900Z,-4.51
2022-12-15T09:30:42.894Z,-4.50
2022-12-15T09:31:46.464Z,-4.49
2022-12-15T09:32:48.340Z,-4.46
2022-12-15T09:33:52.909Z,-4.44
2022-12-15T09:34:54.975Z,-4.44
2022-12-15T09:35:57.010Z,-4.45
2022-12-15T09:36:58.985Z,-4.48
2022-12-15T09:38:00.938Z,-4.49
2022-12-15T09:39:03.247Z,-4.51
2022-12-15T09:40:06.774Z,-4.51
2022-12-15T09:41:22.690Z,-4.50
2022-12-15T09:42:28.788Z,-4.48
2022-12-15T09:43:35.414Z,-4.48
2022-12-15T09:44:39.172Z,-4.46
2022-12-15T09:45:50.444Z,-4.41
2022-12-15T09:47:39.025Z,-4.36
2022-12-15T09:48:46.535Z,-4.27
2022-12-15T09:49:53.607Z,-4.22
2022-12-15T09:50:59.115Z,-4.19
2022-12-15T09:52:10.940Z,-4.15
2022-12-15T09:53:52.510Z,-4.12
2022-12-15T09:54:41.866Z,-4.10
2022-12-15T09:56:03.634Z,-4.09
2022-12-15T09:57:17.163Z,-4.10
2022-12-15T09:58:44.718Z,-4.11
2022-12-15T10:00:10.077Z,-4.10
2022-12-15T10:01:30.692Z,-4.11
2022-12-15T10:03:02.329Z,-4.11
2022-12-15T10:04:13.440Z,-4.09
2022-12-15T10:05:21.440Z,-4.07
2022-12-15T10:06:36.586Z,-4.05
2022-12-15T10:07:50.580Z,-4.03
2022-12-15T10:08:54.678Z,-4.04
2022-12-15T10:09:56.961Z,-4.04
2022-12-15T10:11:02.601Z,-4.03
2022-12-15T10:12:19.257Z,-4.02
2022-12-15T10:13:32.370Z,-4.02
2022-12-15T10:14:54.566Z,-4.03
2022-12-15T10:16:03.922Z,-4.02
2022-12-15T10:17:34.144Z,-4.02
2022-12-15T10:18:56.079Z,-4.00
2022-12-15T10:20:23.900Z,-3.97
2022-12-15T10:21:29.331Z,-3.96
2022-12-15T10:22:36.888Z,-3.95
2022-12-15T10:23:38.907Z,-3.92
2022-12-15T10:26:20.908Z,-3.85
2022-12-15T10:27:39.013Z,-3.84
2022-12-15T10:29:15.227Z,-3.87
2022-12-15T10:30:17.605Z,-3.87
2022-12-15T10:31:30.806Z,-3.86
2022-12-15T10:32:55.904Z,-3.83
2022-12-15T10:34:10.864Z,-3.79
2022-12-15T10:35:27.709Z,-3.77
2022-12-15T10:36:29.815Z,-3.75
2022-12-15T10:37:32.047Z,-3.72
2022-12-15T10:38:40.479Z,-3.70
2022-12-15T10:39:45.839Z,-3.68
2022-12-15T10:40:56.785Z,-3.65
2022-12-15T10:42:12.903Z,-3.63
2022-12-15T10:43:29.121Z,-3.62
2022-12-15T10:44:37.797Z,-3.62
2022-12-15T10:45:40.520Z,-3.60
2022-12-15T10:46:45.217Z,-3.59
2022-12-15T10:48:06.743Z,-3.61
2022-12-15T10:49:08.475Z,-3.65
2022-12-15T10:50:24.837Z,-3.69
2022-12-15T10:51:37.052Z,-3.73
2022-12-15T10:52:38.927Z,-3.74
2022-12-15T10:53:51.577Z,-3.73
2022-12-15T10:54:55.796Z,-3.73
2022-12-15T10:56:03.926Z,-3.72
2022-12-15T10:57:19.665Z,-3.70
2022-12-15T10:58:23.253Z,-3.68
2022-12-15T10:59:28.772Z,-3.68
2022-12-15T11:00:33.358Z,-3.69
2022-12-15T11:01:35.918Z,-3.69
2022-12-15T11:02:38.312Z,-3.69
2022-12-15T11:03:40.917Z,-3.69
2022-12-15T11:04:55.255Z,-3.68
2022-12-15T11:05:57.447Z,-3.65
2022-12-15T11:07:02.214Z,-3.63
2022-12-15T11:08:17.934Z,-3.62
2022-12-15T11:09:29.535Z,-3.60
2022-12-15T11:10:52.002Z,-3.57
2022-12-15T11:12:13.287Z,-3.55
2022-12-15T11:13:18.699Z,-3.55
2022-12-15T11:14:25.858Z,-3.55
2022-12-15T11:15:38.930Z,-3.52
2022-12-15T11:16:50.902Z,-3.50
2022-12-15T11:18:08.716Z,-3.48
2022-12-15T11:19:26.948Z,-3.46
2022-12-15T11:20:40.780Z,-3.43
2022-12-15T11:21:49.131Z,-3.37
2022-12-15T11:23:02.895Z,-3.30
2022-12-15T11:24:19.152Z,-3.19
2022-12-15T11:25:25.123Z,-3.13
2022-12-15T11:26:48.965Z,-3.11
2022-12-15T11:27:57.468Z,-3.10
2022-12-15T11:29:09.948Z,-3.06
2022-12-15T11:30:22.492Z,-3.01
2022-12-15T11:31:33.969Z,-3.04
2022-12-15T11:32:40.704Z,-3.10
2022-12-15T11:33:42.570Z,-3.13
2022-12-15T11:34:47.262Z,-3.15
2022-12-15T11:36:28.176Z,-3.15
2022-12-15T11:37:52.651Z,-3.17
2022-12-15T11:39:20.158Z,-3.16
2022-12-15T11:40:40.881Z,-3.15
2022-12-15T11:42:11.730Z,-3.12
2022-12-15T11:43:44.071Z,-3.11
2022-12-15T11:45:12.306Z,-3.08
2022-12-15T11:46:24.503Z,-3.06
2022-12-15T11:47:26.389Z,-3.06
2022-12-15T11:48:49.862Z,-3.05
2022-12-15T11:50:14.756Z,-3.00
2022-12-15T11:51:36.814Z,-3.04
2022-12-15T11:52:50.963Z,-3.06
2022-12-15T11:54:37.389Z,-3.10
2022-12-15T11:56:04.735Z,-3.12
2022-12-15T11:57:44.001Z,-3.11
2022-12-15T11:59:00.765Z,-3.06
2022-12-15T12:00:16.413Z,-3.05
2022-12-15T12:03:29.944Z,-3.05
2022-12-15T12:05:01.635Z,-3.10
2022-12-15T12:06:16.941Z,-3.13
2022-12-15T12:07:22.449Z,-3.15
2022-12-15T12:08:42.398Z,-3.16
2022-12-15T12:09:52.830Z,-3.14
2022-12-15T12:11:12.556Z,-3.10
2022-12-15T12:12:19.748Z,-3.07
2022-12-15T12:13:37.200Z,-3.01
2022-12-15T12:14:51.242Z,-2.97
2022-12-15T12:16:17.968Z,-2.99
2022-12-15T12:17:43.845Z,-3.03
2022-12-15T12:19:10.572Z,-3.08
2022-12-15T12:20:27.099Z,-3.11
2022-12-15T12:21:36.987Z,-3.13
2022-12-15T12:22:52.613Z,-3.14
2022-12-15T12:24:00.249Z,-3.15
2022-12-15T12:25:05.044Z,-3.18
2022-12-15T12:26:26.375Z,-3.19
2022-12-15T12:27:42.933Z,-3.17
2022-12-15T12:28:59.181Z,-3.18
2022-12-15T12:30:15.637Z,-3.16
2022-12-15T12:31:50.841Z,-3.13
2022-12-15T12:33:15.365Z,-3.14
2022-12-15T12:34:33.323Z,-3.15
2022-12-15T12:35:40.480Z,-3.19
2022-12-15T12:36:45.245Z,-3.21
2022-12-15T12:37:59.505Z,-3.25
2022-12-15T12:39:05.954Z,-3.26
2022-12-15T12:40:18.897Z,-3.27
2022-12-15T12:42:07.090Z,-3.29
2022-12-15T12:43:15.827Z,-3.32
2022-12-15T12:44:33.655Z,-3.34
2022-12-15T12:46:02.035Z,-3.39
2022-12-15T12:47:29.841Z,-3.44
2022-12-15T12:48:44.441Z,-3.43
2022-12-15T12:50:00.393Z,-3.42
2022-12-15T12:51:40.800Z,-3.40
2022-12-15T12:52:52.224Z,-3.40
2022-12-15T12:53:54.959Z,-3.45
2022-12-15T12:55:08.149Z,-3.49
2022-12-15T12:56:30.215Z,-3.51
2022-12-15T12:57:42.756Z,-3.54
2022-12-15T12:58:45.474Z,-3.57
2022-12-15T13:00:20.906Z,-3.57
2022-12-15T13:01:33.225Z,-3.55
2022-12-15T13:02:37.059Z,-3.51
2022-12-15T13:03:41.543Z,-3.49
2022-12-15T13:05:10.270Z,-3.45
2022-12-15T13:06:35.191Z,-3.42
2022-12-15T13:07:41.013Z,-3.39
2022-12-15T13:08:51.102Z,-3.40
2022-12-15T13:10:08.519Z,-3.42
2022-12-15T13:11:49.071Z,-3.42
2022-12-15T13:12:56.904Z,-3.43
2022-12-15T13:13:59.062Z,-3.44
2022-12-15T13:15:11.874Z,-3.45
2022-12-15T13:16:27.099Z,-3.46
2022-12-15T13:17:41.636Z,-3.49
2022-12-15T13:18:55.414Z,-3.50
2022-12-15T13:19:57.168Z,-3.51
2022-12-15T13:21:36.468Z,-3.51
2022-12-15T13:22:40.244Z,-3.51
2022-12-15T13:23:43.152Z,-3.50
2022-12-15T13:24:51.120Z,-3.49
2022-12-15T13:25:55.925Z,-3.46
2022-12-15T13:27:05.894Z,-3.45
2022-12-15T13:28:39.486Z,-3.46
2022-12-15T13:30:01.065Z,-3.49
2022-12-15T13:31:18.763Z,-3.50
2022-12-15T13:32:39.028Z,-3.54
2022-12-15T13:33:49.820Z,-3.54
2022-12-15T13:34:51.914Z,-3.55
2022-12-15T13:35:54.011Z,-3.56
2022-12-15T13:36:58.149Z,-3.57
2022-12-15T13:38:03.685Z,-3.60
2022-12-15T13:39:11.211Z,-3.60
2022-12-15T13:40:33.225Z,-3.61
2022-12-15T13:41:35.748Z,-3.64
2022-12-15T13:42:53.106Z,-3.67
2022-12-15T13:44:01.142Z,-3.72
2022-12-15T13:45:31.483Z,-3.75
2022-12-15T13:46:35.685Z,-3.79
2022-12-15T13:47:38.893Z,-3.82
2022-12-15T13:48:51.586Z,-3.84
2022-12-15T13:50:02.258Z,-3.87
2022-12-15T13:51:37.695Z,-3.91
2022-12-15T13:54:24.619Z,-4.03
2022-12-15T13:55:37.303Z,-4.07
2022-12-15T13:56:56.601Z,-4.12
2022-12-15T13:58:07.039Z,-4.14
2022-12-15T13:59:31.471Z,-4.16
2022-12-15T14:00:34.176Z,-4.18
2022-12-15T14:01:36.898Z,-4.20
2022-12-15T14:02:39.105Z,-4.22
2022-12-15T14:04:00.089Z,-4.25
2022-12-15T14:05:15.233Z,-4.29
2022-12-15T14:06:17.247Z,-4.35
2022-12-15T14:07:19.367Z,-4.40
2022-12-15T14:08:24.119Z,-4.44
2022-12-15T14:09:41.244Z,-4.46
2022-12-15T14:10:53.723Z,-4.49
2022-12-15T14:11:58.048Z,-4.50
2022-12-15T14:13:16.138Z,-4.52
2022-12-15T14:14:43.539Z,-4.54
2022-12-15T14:15:56.633Z,-4.56
2022-12-15T14:17:02.611Z,-4.60
2022-12-15T14:18:07.321Z,-4.63
2022-12-15T14:19:13.092Z,-4.67
2022-12-15T14:20:22.833Z,-4.70
2022-12-15T14:21:30.496Z,-4.75
2022-12-15T14:22:32.715Z,-4.81
2022-12-15T14:24:11.285Z,-4.87
2022-12-15T14:25:33.926Z,-4.93
2022-12-15T14:26:36.143Z,-4.98
2022-12-15T14:27:38.684Z,-5.03
2022-12-15T14:28:46.160Z,-5.09
2022-12-15T14:30:22.760Z,-5.15
2022-12-15T14:31:25.996Z,-5.23
2022-12-15T14:32:28.586Z,-5.29
2022-12-15T14:33:37.417Z,-5.33
2022-12-15T14:34:41.969Z,-5.39
2022-12-15T14:35:49.553Z,-5.41
2022-12-15T14:36:56.359Z,-5.44
2022-12-15T14:38:02.625Z,-5.45
2022-12-15T14:39:12.995Z,-5.46
2022-12-15T14:40:18.164Z,-5.46
2022-12-15T14:41:26.090Z,-5.45
2022-12-15T14:42:31.316Z,-5.44
2022-12-15T14:43:38.925Z,-5.44
2022-12-15T14:44:51.376Z,-5.44
2022-12-15T14:46:15.659Z,-5.45
2022-12-15T14:47:27.057Z,-5.47
2022-12-15T14:48:41.420Z,-5.48
2022-12-15T14:50:02.414Z,-5.48
2022-12-15T14:51:06.259Z,-5.47
2022-12-15T14:52:28.703Z,-5.48
2022-12-15T14:53:36.353Z,-5.49
2022-12-15T14:55:00.339Z,-5.47
2022-12-15T14:57:45.730Z,-5.42
2022-12-15T14:59:17.583Z,-5.42
2022-12-15T15:00:35.083Z,-5.41
2022-12-15T15:01:58.259Z,-5.41
2022-12-15T15:03:10.789Z,-3.06
2022-12-15T15:03:14.541Z,-5.45
2022-12-15T15:04:26.817Z,-5.43
2022-12-15T15:05:28.766Z,-5.44
2022-12-15T15:06:37.794Z,-5.45
2022-12-15T15:07:40.902Z,-5.44
2022-12-15T15:08:52.818Z,-5.45
2022-12-15T15:09:55.802Z,-5.45
2022-12-15T15:11:02.696Z,-5.44
2022-12-15T15:12:15.139Z,-5.44
2022-12-15T15:13:26.085Z,-5.46